createdAt,value
2019-05-19T00:03:34.764Z,9.13
2019-05-19T00:06:16.894Z,8.77
2019-05-19T00:08:58.355Z,9.10
2019-05-19T00:11:40.277Z,9.80
2019-05-19T00:14:22.195Z,10.37
2019-05-19T00:16:52.086Z,12.23
2019-05-19T00:19:26.738Z,11.10
2019-05-19T00:22:32.153Z,11.13
2019-05-19T00:25:02.330Z,8.97
2019-05-19T00:27:51.591Z,8.83
2019-05-19T00:30:40.972Z,8.07
2019-05-19T00:33:29.929Z,8.57
2019-05-19T00:36:21.532Z,10.00
2019-05-19T00:38:52.338Z,8.57
2019-05-19T00:41:41.784Z,8.37
2019-05-19T00:44:11.576Z,8.50
2019-05-19T00:47:00.583Z,8.50
2019-05-19T00:53:03.252Z,8.60
2019-05-19T00:59:01.761Z,8.70
2019-05-19T01:01:31.582Z,8.90
2019-05-19T01:04:21.979Z,9.53
2019-05-19T01:07:11.143Z,9.10
2019-05-19T01:10:00.267Z,10.13
2019-05-19T01:12:49.265Z,10.07
2019-05-19T01:15:38.552Z,9.53
2019-05-19T01:18:27.842Z,9.30
2019-05-19T01:21:37.417Z,9.27
2019-05-19T01:27:40.063Z,10.03
2019-05-19T01:30:29.123Z,10.07
2019-05-19T01:32:59.235Z,9.90
2019-05-19T01:35:50.674Z,10.67
2019-05-19T01:38:39.899Z,9.50
2019-05-19T01:41:29.579Z,9.67
2019-05-19T01:47:32.414Z,10.97
2019-05-19T01:53:35.668Z,9.87
2019-05-19T01:56:24.662Z,10.37
2019-05-19T01:59:14.166Z,9.87
2019-05-19T02:01:56.587Z,10.20
2019-05-19T02:04:38.212Z,10.90
2019-05-19T02:07:21.525Z,19.63
2019-05-19T02:10:03.263Z,15.40
2019-05-19T02:12:45.464Z,11.23
2019-05-19T02:18:49.858Z,10.03
2019-05-19T02:21:19.747Z,12.50
2019-05-19T02:24:08.743Z,10.13
2019-05-19T02:26:57.939Z,10.73
2019-05-19T02:29:46.883Z,10.73
2019-05-19T02:32:55.292Z,10.70
2019-05-19T02:35:44.332Z,10.67
2019-05-19T02:38:33.564Z,11.50
2019-05-19T02:41:22.663Z,11.63
2019-05-19T02:44:11.975Z,11.67
2019-05-19T02:46:42.313Z,11.73
2019-05-19T02:49:51.849Z,12.73
2019-05-19T02:52:41.676Z,12.97
2019-05-19T02:55:31.203Z,12.07
2019-05-19T02:58:12.990Z,11.37
2019-05-19T03:00:55.452Z,12.37
2019-05-19T03:06:08.721Z,12.00
2019-05-19T03:08:57.659Z,11.60
2019-05-19T03:11:27.607Z,12.13
2019-05-19T03:13:57.435Z,10.97
2019-05-19T03:16:27.658Z,11.73
2019-05-19T03:19:16.649Z,12.77
2019-05-19T03:21:46.916Z,13.83
2019-05-19T03:24:17.416Z,13.00
2019-05-19T03:26:47.336Z,12.63
2019-05-19T03:36:04.007Z,12.13
2019-05-19T03:38:53.031Z,11.80
2019-05-19T03:41:42.067Z,13.07
2019-05-19T03:44:12.045Z,13.63
2019-05-19T03:53:20.920Z,10.60
2019-05-19T03:56:02.456Z,10.27
2019-05-19T03:58:44.149Z,11.87
2019-05-19T04:01:14.020Z,11.70
2019-05-19T04:03:43.964Z,12.70
2019-05-19T04:06:33.115Z,12.20
2019-05-19T04:09:22.408Z,12.73
2019-05-19T04:11:52.315Z,13.83
2019-05-19T04:14:48.924Z,13.37
2019-05-19T04:17:37.986Z,13.90
2019-05-19T04:20:27.156Z,14.10
2019-05-19T04:23:16.527Z,13.77
2019-05-19T04:26:05.541Z,14.43
2019-05-19T04:28:53.885Z,14.17
2019-05-19T04:31:42.873Z,14.53
2019-05-19T04:34:33.720Z,14.73
2019-05-19T04:37:23.255Z,14.33
2019-05-19T04:39:53.331Z,14.00
2019-05-19T04:42:23.023Z,13.17
2019-05-19T04:44:52.840Z,13.20
2019-05-19T04:47:22.586Z,12.60
2019-05-19T04:50:11.524Z,12.33
2019-05-19T04:56:19.712Z,11.90
2019-05-19T04:59:27.121Z,12.50
2019-05-19T05:02:35.424Z,11.80
2019-05-19T05:05:24.474Z,11.53
2019-05-19T05:11:27.277Z,11.00
2019-05-19T05:14:16.324Z,11.10
2019-05-19T05:17:05.352Z,11.27
2019-05-19T05:19:54.538Z,11.57
2019-05-19T05:22:43.642Z,11.07
2019-05-19T05:25:32.740Z,11.30
2019-05-19T05:28:14.316Z,11.47
2019-05-19T05:30:55.898Z,11.40
2019-05-19T05:33:37.711Z,11.60
2019-05-19T05:36:18.986Z,10.30
2019-05-19T05:38:48.969Z,11.03
2019-05-19T05:41:18.751Z,10.47
2019-05-19T05:44:07.844Z,11.10
2019-05-19T05:46:37.856Z,11.80
2019-05-19T05:52:41.147Z,10.80
2019-05-19T05:55:30.634Z,11.67
2019-05-19T05:58:20.156Z,11.67
2019-05-19T06:01:09.154Z,11.10
2019-05-19T06:03:39.483Z,11.13
2019-05-19T06:09:39.007Z,13.23
2019-05-19T06:12:27.931Z,11.43
2019-05-19T06:15:17.480Z,10.77
2019-05-19T06:18:25.978Z,10.27
2019-05-19T06:21:14.874Z,9.57
2019-05-19T06:24:04.149Z,9.33
2019-05-19T06:26:45.978Z,9.00
2019-05-19T06:29:28.184Z,9.17
2019-05-19T06:35:32.169Z,9.27
2019-05-19T06:38:02.528Z,9.77
2019-05-19T06:47:14.898Z,10.13
2019-05-19T06:49:44.658Z,10.07
2019-05-19T06:52:14.642Z,9.20
2019-05-19T06:55:03.699Z,9.10
2019-05-19T06:57:53.306Z,8.93
2019-05-19T07:03:50.316Z,9.70
2019-05-19T07:06:39.672Z,10.37
2019-05-19T07:09:29.329Z,11.90
2019-05-19T07:12:18.286Z,9.83
2019-05-19T07:17:56.156Z,9.87
2019-05-19T07:20:45.479Z,10.00
2019-05-19T07:23:55.385Z,9.73
2019-05-19T07:26:44.514Z,8.77
2019-05-19T07:29:33.700Z,8.30
2019-05-19T07:32:22.757Z,8.20
2019-05-19T07:35:11.823Z,8.53
2019-05-19T07:38:01.080Z,8.60
2019-05-19T07:40:30.791Z,8.47
2019-05-19T07:43:19.812Z,8.30
2019-05-19T07:46:08.856Z,9.10
2019-05-19T07:55:25.012Z,8.17
2019-05-19T07:58:14.191Z,8.37
2019-05-19T08:01:03.229Z,7.50
2019-05-19T08:03:52.164Z,7.70
2019-05-19T08:06:41.156Z,7.27
2019-05-19T08:09:30.065Z,6.67
2019-05-19T08:12:19.097Z,8.07
2019-05-19T08:15:08.238Z,7.27
2019-05-19T08:17:50.365Z,6.43
2019-05-19T08:20:32.163Z,7.10
2019-05-19T08:23:13.965Z,7.03
2019-05-19T08:25:56.271Z,6.03
2019-05-19T08:28:41.683Z,6.00
2019-05-19T08:31:24.158Z,6.57
2019-05-19T08:34:06.337Z,8.30
2019-05-19T08:36:48.685Z,7.97
2019-05-19T08:42:13.668Z,7.60
2019-05-19T08:44:56.254Z,7.50
2019-05-19T08:47:41.334Z,6.80
2019-05-19T08:50:23.174Z,6.00
2019-05-19T08:53:23.973Z,5.67
2019-05-19T08:56:05.951Z,5.77
2019-05-19T08:58:36.014Z,5.90
2019-05-19T09:01:25.387Z,5.90
2019-05-19T09:04:14.395Z,5.00
2019-05-19T09:07:04.869Z,4.70
2019-05-19T09:09:56.923Z,5.13
2019-05-19T09:12:39.238Z,6.53
2019-05-19T09:15:24.178Z,5.57
2019-05-19T09:18:05.912Z,5.77
2019-05-19T09:20:47.892Z,5.60
2019-05-19T09:26:31.618Z,7.37
2019-05-19T09:29:01.912Z,6.83
2019-05-19T09:31:51.215Z,5.60
2019-05-19T09:34:40.345Z,6.77
2019-05-19T09:37:29.335Z,5.53
2019-05-19T09:40:18.440Z,5.27
2019-05-19T09:43:07.912Z,5.80
2019-05-19T09:45:56.825Z,5.63
2019-05-19T09:48:46.022Z,6.03
2019-05-19T09:51:35.230Z,5.70
2019-05-19T09:54:24.563Z,6.10
2019-05-19T09:57:13.783Z,5.80
2019-05-19T10:00:02.978Z,6.60
2019-05-19T10:02:51.918Z,6.13
2019-05-19T10:05:33.963Z,6.90
2019-05-19T10:11:07.930Z,7.33
2019-05-19T10:13:37.971Z,7.57
2019-05-19T10:16:08.186Z,7.20
2019-05-19T10:18:57.529Z,6.97
2019-05-19T10:21:46.751Z,6.57
2019-05-19T10:24:35.754Z,7.37
2019-05-19T10:27:24.804Z,7.30
2019-05-19T10:30:14.006Z,6.87
2019-05-19T10:32:44.538Z,7.83
2019-05-19T10:35:14.835Z,7.57
2019-05-19T10:38:03.727Z,7.07
2019-05-19T10:40:52.682Z,8.00
2019-05-19T10:43:22.837Z,9.40
2019-05-19T10:46:02.057Z,7.60
2019-05-19T10:48:50.965Z,8.20
2019-05-19T10:51:21.078Z,8.70
2019-05-19T10:54:10.435Z,8.63
2019-05-19T10:56:59.597Z,7.90
2019-05-19T10:59:48.535Z,8.33
2019-05-19T11:02:30.967Z,8.30
2019-05-19T11:05:12.778Z,9.00
2019-05-19T11:07:42.520Z,8.40
2019-05-19T11:10:31.518Z,8.53
2019-05-19T11:13:20.441Z,8.83
2019-05-19T11:16:09.699Z,8.70
2019-05-19T11:18:58.674Z,7.43
2019-05-19T11:21:48.054Z,8.20
2019-05-19T11:24:18.099Z,7.77
2019-05-19T11:26:47.960Z,8.87
2019-05-19T11:29:17.933Z,8.30
2019-05-19T11:32:06.880Z,9.10
2019-05-19T11:34:55.799Z,8.80
2019-05-19T11:37:44.988Z,7.60
2019-05-19T11:40:34.178Z,7.60
2019-05-19T11:43:03.967Z,18.30
2019-05-19T11:45:34.022Z,8.87
2019-05-19T11:48:23.161Z,7.33
2019-05-19T11:51:12.452Z,7.63
2019-05-19T11:54:01.593Z,7.80
2019-05-19T11:56:31.730Z,7.73
2019-05-19T11:59:20.914Z,7.40
2019-05-19T12:02:09.922Z,6.43
2019-05-19T12:04:58.850Z,7.07
2019-05-19T12:07:48.069Z,7.27
2019-05-19T12:10:18.025Z,5.97
2019-05-19T12:12:48.566Z,5.50
2019-05-19T12:15:37.053Z,6.47
2019-05-19T12:18:25.429Z,5.30
2019-05-19T12:20:55.362Z,5.37
2019-05-19T12:23:44.647Z,5.43
2019-05-19T12:29:47.897Z,5.43
2019-05-19T12:32:36.924Z,6.53
2019-05-19T12:38:41.840Z,7.43
2019-05-19T12:41:31.539Z,4.90
2019-05-19T12:44:20.503Z,5.27
2019-05-19T12:47:09.671Z,5.60
2019-05-19T12:49:58.674Z,5.80
2019-05-19T12:52:40.809Z,5.20
2019-05-19T12:55:11.039Z,6.30
2019-05-19T12:58:00.219Z,5.80
2019-05-19T13:00:30.114Z,5.53
2019-05-19T13:03:19.390Z,5.80
2019-05-19T13:06:08.655Z,7.63
2019-05-19T13:08:57.916Z,6.60
2019-05-19T13:11:46.845Z,7.07
2019-05-19T13:14:35.734Z,7.27
2019-05-19T13:17:25.236Z,8.37
2019-05-19T13:20:14.350Z,8.33
2019-05-19T13:23:03.352Z,10.50
2019-05-19T13:25:52.350Z,10.40
2019-05-19T13:28:41.322Z,8.80
2019-05-19T13:31:30.290Z,7.50
2019-05-19T13:34:19.297Z,8.73
2019-05-19T13:37:08.269Z,7.80
2019-05-19T13:39:57.431Z,8.27
2019-05-19T13:42:46.429Z,7.70
2019-05-19T13:45:35.439Z,7.83
2019-05-19T13:48:24.698Z,7.57
2019-05-19T13:51:13.687Z,9.63
2019-05-19T13:57:16.764Z,7.37
2019-05-19T14:00:06.091Z,6.60
2019-05-19T14:02:55.030Z,6.57
2019-05-19T14:05:44.207Z,6.03
2019-05-19T14:08:33.298Z,7.13
2019-05-19T14:11:22.730Z,7.30
2019-05-19T14:14:11.730Z,7.27
2019-05-19T14:17:00.934Z,6.10
2019-05-19T14:19:49.916Z,5.57
2019-05-19T14:25:33.622Z,7.00
2019-05-19T14:28:22.591Z,7.30
2019-05-19T14:31:11.763Z,6.60
2019-05-19T14:37:15.125Z,5.83
2019-05-19T14:40:04.482Z,6.03
2019-05-19T14:52:01.879Z,5.60
2019-05-19T14:54:43.122Z,5.50
2019-05-19T14:57:25.137Z,4.77
2019-05-19T15:00:06.933Z,4.70
2019-05-19T15:02:48.690Z,4.60
2019-05-19T15:05:30.054Z,4.50
2019-05-19T15:11:28.962Z,4.30
2019-05-19T15:14:17.937Z,4.40
2019-05-19T15:17:06.850Z,4.53
2019-05-19T15:23:10.177Z,5.70
2019-05-19T15:25:59.351Z,5.37
2019-05-19T15:28:48.278Z,4.57
2019-05-19T15:31:18.071Z,6.70
2019-05-19T15:33:48.029Z,4.77
2019-05-19T15:39:14.530Z,4.60
2019-05-19T15:44:38.979Z,5.27
2019-05-19T15:47:20.759Z,4.87
2019-05-19T15:50:02.542Z,3.50
2019-05-19T15:52:44.741Z,4.63
2019-05-19T15:55:26.821Z,4.30
2019-05-19T15:58:16.430Z,4.07
2019-05-19T16:00:53.378Z,4.37
2019-05-19T16:03:36.068Z,4.17
2019-05-19T16:06:17.937Z,3.77
2019-05-19T16:08:59.171Z,4.40
2019-05-19T16:11:41.512Z,3.57
2019-05-19T16:14:23.226Z,3.43
2019-05-19T16:19:48.768Z,3.10
2019-05-19T16:22:31.115Z,1.63
2019-05-19T16:25:13.007Z,3.83
2019-05-19T16:27:54.767Z,5.93
2019-05-19T16:30:36.842Z,3.33
2019-05-19T16:33:18.374Z,3.60
2019-05-19T16:36:00.475Z,1.90
2019-05-19T16:38:42.051Z,2.30
2019-05-19T16:41:23.273Z,2.60
2019-05-19T16:44:05.570Z,1.70
2019-05-19T16:46:47.419Z,2.30
2019-05-19T16:49:17.649Z,2.03
2019-05-19T16:51:47.968Z,1.90
2019-05-19T16:54:22.981Z,2.37
2019-05-19T16:56:53.015Z,1.97
2019-05-19T16:59:23.076Z,2.20
2019-05-19T17:01:52.882Z,2.97
2019-05-19T17:04:22.617Z,2.50
2019-05-19T17:06:52.462Z,1.60
2019-05-19T17:09:22.434Z,2.17
2019-05-19T17:11:52.269Z,2.20
2019-05-19T17:14:22.015Z,2.87
2019-05-19T17:16:52.120Z,2.93
2019-05-19T17:19:21.875Z,4.23
2019-05-19T17:21:51.850Z,2.20
2019-05-19T17:24:21.638Z,3.30
2019-05-19T17:26:51.443Z,2.57
2019-05-19T17:29:21.123Z,2.20
2019-05-19T17:32:04.004Z,3.33
2019-05-19T17:34:22.498Z,3.40
2019-05-19T17:36:52.211Z,3.50
2019-05-19T17:39:22.202Z,3.00
2019-05-19T17:41:52.307Z,5.13
2019-05-19T17:44:22.055Z,3.30
2019-05-19T17:46:51.789Z,2.93
2019-05-19T17:49:21.473Z,2.50
2019-05-19T17:51:51.321Z,4.60
2019-05-19T17:54:21.520Z,3.40
2019-05-19T17:56:52.902Z,3.50
2019-05-19T17:59:24.468Z,3.17
2019-05-19T18:01:54.248Z,5.23
2019-05-19T18:04:24.263Z,4.80
2019-05-19T18:06:54.407Z,3.70
2019-05-19T18:09:24.143Z,4.30
2019-05-19T18:11:54.498Z,4.90
2019-05-19T18:14:24.473Z,4.73
2019-05-19T18:16:54.423Z,3.93
2019-05-19T18:19:24.559Z,3.10
2019-05-19T18:21:54.302Z,3.60
2019-05-19T18:24:24.403Z,3.37
2019-05-19T18:26:54.255Z,3.30
2019-05-19T18:29:30.906Z,3.77
2019-05-19T18:31:55.443Z,3.80
2019-05-19T18:34:25.510Z,3.20
2019-05-19T18:36:55.318Z,3.17
2019-05-19T18:39:25.033Z,2.40
2019-05-19T18:41:54.978Z,2.90
2019-05-19T18:44:25.371Z,2.50
2019-05-19T18:46:56.259Z,5.70
2019-05-19T18:49:26.236Z,3.53
2019-05-19T18:51:56.368Z,5.60
2019-05-19T18:54:26.375Z,3.67
2019-05-19T18:56:56.349Z,3.63
2019-05-19T18:59:26.039Z,5.73
2019-05-19T19:01:56.077Z,6.23
2019-05-19T19:04:25.930Z,2.47
2019-05-19T19:06:55.703Z,4.90
2019-05-19T19:09:25.467Z,10.27
2019-05-19T19:11:55.481Z,2.87
2019-05-19T19:14:27.745Z,4.60
2019-05-19T19:16:57.695Z,4.17
2019-05-19T19:19:27.553Z,4.70
2019-05-19T19:21:57.565Z,2.90
2019-05-19T19:24:27.399Z,3.27
2019-05-19T19:26:57.195Z,2.40
2019-05-19T19:29:26.973Z,2.70
2019-05-19T19:31:57.142Z,2.27
2019-05-19T19:34:26.898Z,2.87
2019-05-19T19:36:56.640Z,2.97
2019-05-19T19:39:26.369Z,2.20
2019-05-19T19:41:56.286Z,4.00
2019-05-19T19:44:26.028Z,8.40
2019-05-19T19:46:55.789Z,5.43
2019-05-19T19:49:25.530Z,4.90
2019-05-19T19:51:55.391Z,4.03
2019-05-19T19:54:25.174Z,2.83
2019-05-19T19:56:55.253Z,4.13
2019-05-19T19:59:25.342Z,3.97
2019-05-19T20:01:55.509Z,4.20
2019-05-19T20:04:25.666Z,4.63
2019-05-19T20:06:55.763Z,7.07
2019-05-19T20:09:25.738Z,3.43
2019-05-19T20:11:55.520Z,3.50
2019-05-19T20:14:27.140Z,3.90
2019-05-19T20:17:01.570Z,4.17
2019-05-19T20:19:33.981Z,4.17
2019-05-19T20:22:04.178Z,3.53
2019-05-19T20:24:34.299Z,3.70
2019-05-19T20:27:04.063Z,4.07
2019-05-19T20:29:33.850Z,3.50
2019-05-19T20:32:03.598Z,3.50
2019-05-19T20:34:33.407Z,3.43
2019-05-19T20:37:06.426Z,4.57
2019-05-19T20:39:36.166Z,3.60
2019-05-19T20:42:06.457Z,3.90
2019-05-19T20:44:36.523Z,8.57
2019-05-19T20:47:06.244Z,5.57
2019-05-19T20:49:36.304Z,5.27
2019-05-19T20:52:06.116Z,8.53
2019-05-19T20:54:36.069Z,10.53
2019-05-19T20:57:06.143Z,4.63
2019-05-19T20:59:35.864Z,3.37
2019-05-19T21:02:05.547Z,5.27
2019-05-19T21:04:38.477Z,2.83
2019-05-19T21:07:09.478Z,3.70
2019-05-19T21:09:39.462Z,5.50
2019-05-19T21:12:09.497Z,3.07
2019-05-19T21:14:39.715Z,4.40
2019-05-19T21:17:11.330Z,3.73
2019-05-19T21:19:41.349Z,9.50
2019-05-19T21:25:40.786Z,4.47
2019-05-19T21:28:10.842Z,3.00
2019-05-19T21:30:40.712Z,3.57
2019-05-19T21:33:10.870Z,4.07
2019-05-19T21:35:40.646Z,4.47
2019-05-19T21:38:10.437Z,4.00
2019-05-19T21:40:41.826Z,4.40
2019-05-19T21:43:11.571Z,5.67
2019-05-19T21:45:44.100Z,6.33
2019-05-19T21:48:13.910Z,6.17
2019-05-19T21:50:43.966Z,3.83
2019-05-19T21:53:16.770Z,5.63
2019-05-19T21:55:46.535Z,3.40
2019-05-19T21:58:16.391Z,5.13
2019-05-19T22:00:46.349Z,5.03
2019-05-19T22:03:16.602Z,3.57
2019-05-19T22:05:53.432Z,9.03
2019-05-19T22:08:18.640Z,6.07
2019-05-19T22:10:48.726Z,3.40
2019-05-19T22:13:18.690Z,4.10
2019-05-19T22:15:48.634Z,4.03
2019-05-19T22:18:18.884Z,4.97
2019-05-19T22:20:48.937Z,4.47
2019-05-19T22:23:19.042Z,3.97
2019-05-19T22:25:52.038Z,4.43
2019-05-19T22:28:21.991Z,4.53
2019-05-19T22:30:52.068Z,4.63
2019-05-19T22:33:22.096Z,3.63
2019-05-19T22:35:53.382Z,6.40
2019-05-19T22:38:23.188Z,4.73
2019-05-19T22:40:53.059Z,4.90
2019-05-19T22:43:25.561Z,5.50
2019-05-19T22:45:55.237Z,4.73
2019-05-19T22:48:25.038Z,5.60
2019-05-19T22:50:54.903Z,4.73
2019-05-19T22:53:26.018Z,5.33
2019-05-19T22:55:55.784Z,4.70
2019-05-19T22:58:28.412Z,4.30
2019-05-19T23:00:58.291Z,7.93
2019-05-19T23:03:28.011Z,5.50
2019-05-19T23:05:57.984Z,4.47
2019-05-19T23:08:28.019Z,6.97
2019-05-19T23:10:57.698Z,6.97
2019-05-19T23:13:27.894Z,12.27
2019-05-19T23:15:57.841Z,6.00
2019-05-19T23:18:27.574Z,5.30
2019-05-19T23:20:57.469Z,4.73
2019-05-19T23:23:27.259Z,4.77
2019-05-19T23:25:58.453Z,4.57
2019-05-19T23:28:28.227Z,4.30
2019-05-19T23:30:57.993Z,6.10
2019-05-19T23:33:27.755Z,4.80
2019-05-19T23:35:57.613Z,4.93
2019-05-19T23:38:27.883Z,4.40
2019-05-19T23:40:57.582Z,4.47
2019-05-19T23:43:27.501Z,4.60
2019-05-19T23:45:57.361Z,4.43
2019-05-19T23:48:27.514Z,3.97
2019-05-19T23:50:57.282Z,4.17
2019-05-19T23:53:27.057Z,3.90
2019-05-19T23:55:57.587Z,3.27
2019-05-19T23:58:28.348Z,3.40
